createdAt,value
2019-03-20T00:00:05.642Z,5.67
2019-03-20T00:01:07.883Z,5.64
2019-03-20T00:02:05.583Z,5.72
2019-03-20T00:03:05.556Z,5.72
2019-03-20T00:04:05.540Z,5.73
2019-03-20T00:05:05.508Z,5.58
2019-03-20T00:06:05.482Z,5.67
2019-03-20T00:07:05.459Z,5.67
2019-03-20T00:08:05.432Z,5.59
2019-03-20T00:09:05.403Z,5.54
2019-03-20T00:10:05.415Z,5.59
2019-03-20T00:11:05.361Z,5.56
2019-03-20T00:12:05.342Z,5.59
2019-03-20T00:13:05.306Z,5.56
2019-03-20T00:14:05.288Z,5.59
2019-03-20T00:15:05.255Z,5.56
2019-03-20T00:16:05.235Z,5.58
2019-03-20T00:17:05.204Z,5.47
2019-03-20T00:18:05.181Z,5.47
2019-03-20T00:19:05.154Z,5.41
2019-03-20T00:20:05.130Z,5.47
2019-03-20T00:21:05.103Z,5.55
2019-03-20T00:22:05.081Z,5.47
2019-03-20T00:23:05.054Z,5.54
2019-03-20T00:24:05.024Z,5.41
2019-03-20T00:25:04.997Z,5.44
2019-03-20T00:26:05.000Z,5.46
2019-03-20T00:27:04.953Z,5.49
2019-03-20T00:28:04.929Z,5.47
2019-03-20T00:29:04.906Z,5.54
2019-03-20T00:30:04.871Z,5.41
2019-03-20T00:31:04.852Z,5.46
2019-03-20T00:32:04.823Z,5.46
2019-03-20T00:33:04.798Z,5.43
2019-03-20T00:34:04.772Z,5.46
2019-03-20T00:35:04.750Z,5.49
2019-03-20T00:36:04.735Z,5.43
2019-03-20T00:37:04.696Z,5.40
2019-03-20T00:38:04.674Z,5.49
2019-03-20T00:39:04.648Z,5.47
2019-03-20T00:40:04.624Z,5.49
2019-03-20T00:41:04.599Z,5.47
2019-03-20T00:42:04.612Z,5.52
2019-03-20T00:43:04.549Z,5.46
2019-03-20T00:44:04.581Z,5.54
2019-03-20T00:45:04.493Z,5.54
2019-03-20T00:46:05.476Z,5.51
2019-03-20T00:47:04.441Z,5.44
2019-03-20T00:48:04.452Z,5.46
2019-03-20T00:49:04.394Z,5.52
2019-03-20T00:50:04.386Z,5.41
2019-03-20T00:51:04.342Z,5.41
2019-03-20T00:52:04.335Z,5.38
2019-03-20T00:53:04.293Z,5.36
2019-03-20T00:54:04.288Z,5.37
2019-03-20T00:55:04.248Z,5.36
2019-03-20T00:56:04.215Z,5.46
2019-03-20T00:57:04.249Z,5.36
2019-03-20T00:58:04.171Z,5.37
2019-03-20T00:59:04.138Z,5.40
2019-03-20T01:00:04.113Z,5.37
2019-03-20T01:01:04.094Z,5.36
2019-03-20T01:02:04.067Z,5.34
2019-03-20T01:03:04.039Z,5.36
2019-03-20T01:04:04.010Z,5.36
2019-03-20T01:05:12.177Z,5.33
2019-03-20T01:06:03.957Z,5.22
2019-03-20T01:07:03.933Z,5.22
2019-03-20T01:08:03.930Z,5.33
2019-03-20T01:09:03.881Z,5.22
2019-03-20T01:10:03.929Z,5.20
2019-03-20T01:11:03.831Z,5.19
2019-03-20T01:12:03.809Z,5.25
2019-03-20T01:13:03.783Z,5.15
2019-03-20T01:14:03.759Z,5.07
2019-03-20T01:15:03.729Z,5.19
2019-03-20T01:16:03.704Z,5.18
2019-03-20T01:17:03.711Z,5.10
2019-03-20T01:18:03.657Z,5.12
2019-03-20T01:19:03.654Z,5.10
2019-03-20T01:20:03.623Z,5.10
2019-03-20T01:21:04.375Z,5.10
2019-03-20T01:22:03.550Z,4.98
2019-03-20T01:23:03.523Z,5.05
2019-03-20T01:24:03.526Z,5.04
2019-03-20T01:25:03.475Z,5.05
2019-03-20T01:26:03.443Z,4.97
2019-03-20T01:27:03.422Z,5.04
2019-03-20T01:28:03.423Z,4.94
2019-03-20T01:29:03.371Z,4.98
2019-03-20T01:30:03.342Z,5.00
2019-03-20T01:31:03.316Z,4.95
2019-03-20T01:32:03.292Z,4.90
2019-03-20T01:33:03.271Z,4.86
2019-03-20T01:34:03.242Z,4.89
2019-03-20T01:35:03.214Z,4.83
2019-03-20T01:36:03.192Z,4.87
2019-03-20T01:37:03.162Z,4.83
2019-03-20T01:38:03.147Z,4.87
2019-03-20T01:39:03.111Z,4.89
2019-03-20T01:40:03.093Z,4.92
2019-03-20T01:41:03.062Z,4.84
2019-03-20T01:42:03.034Z,4.83
2019-03-20T01:43:03.007Z,4.79
2019-03-20T01:44:02.982Z,4.83
2019-03-20T01:45:03.007Z,4.84
2019-03-20T01:46:02.933Z,4.71
2019-03-20T01:47:03.750Z,4.75
2019-03-20T01:48:02.882Z,4.71
2019-03-20T01:49:02.863Z,4.84
2019-03-20T01:50:02.830Z,4.84
2019-03-20T01:51:02.798Z,4.76
2019-03-20T01:52:02.778Z,4.89
2019-03-20T01:53:02.750Z,4.87
2019-03-20T01:54:02.725Z,4.83
2019-03-20T01:55:02.700Z,4.84
2019-03-20T01:56:02.673Z,4.83
2019-03-20T01:57:02.653Z,4.84
2019-03-20T01:58:02.622Z,4.75
2019-03-20T01:59:02.597Z,4.76
2019-03-20T02:00:02.570Z,4.86
2019-03-20T02:01:02.544Z,4.79
2019-03-20T02:02:02.517Z,4.76
2019-03-20T02:03:02.541Z,4.82
2019-03-20T02:04:02.471Z,4.83
2019-03-20T02:05:02.439Z,4.87
2019-03-20T02:06:02.415Z,4.83
2019-03-20T02:07:02.388Z,4.78
2019-03-20T02:08:02.429Z,4.78
2019-03-20T02:09:02.336Z,4.83
2019-03-20T02:10:02.314Z,4.71
2019-03-20T02:11:02.286Z,4.79
2019-03-20T02:12:02.262Z,4.76
2019-03-20T02:13:02.231Z,4.75
2019-03-20T02:14:02.212Z,4.83
2019-03-20T02:15:02.887Z,4.84
2019-03-20T02:16:02.155Z,4.89
2019-03-20T02:17:02.130Z,4.86
2019-03-20T02:18:02.101Z,4.87
2019-03-20T02:19:02.100Z,4.90
2019-03-20T02:20:02.065Z,4.86
2019-03-20T02:21:02.020Z,4.92
2019-03-20T02:22:02.000Z,4.90
2019-03-20T02:23:01.990Z,4.97
2019-03-20T02:24:02.031Z,4.95
2019-03-20T02:25:01.920Z,4.94
2019-03-20T02:26:01.895Z,4.87
2019-03-20T02:27:01.869Z,4.84
2019-03-20T02:28:01.849Z,4.87
2019-03-20T02:29:01.817Z,4.84
2019-03-20T02:30:01.860Z,4.83
2019-03-20T02:31:01.771Z,4.90
2019-03-20T02:32:01.781Z,4.84
2019-03-20T02:33:01.729Z,4.87
2019-03-20T02:34:01.693Z,4.87
2019-03-20T02:35:02.004Z,4.89
2019-03-20T02:36:01.636Z,4.86
2019-03-20T02:37:01.604Z,4.82
2019-03-20T02:38:01.582Z,4.89
2019-03-20T02:39:01.558Z,4.87
2019-03-20T02:40:01.545Z,4.78
2019-03-20T02:41:01.507Z,4.86
2019-03-20T02:42:01.515Z,4.87
2019-03-20T02:43:01.451Z,4.79
2019-03-20T02:44:01.434Z,4.84
2019-03-20T02:45:01.400Z,4.82
2019-03-20T02:46:01.384Z,4.84
2019-03-20T02:47:01.350Z,4.82
2019-03-20T02:48:01.319Z,4.89
2019-03-20T02:49:01.298Z,4.89
2019-03-20T02:50:01.271Z,4.87
2019-03-20T02:51:01.243Z,4.79
2019-03-20T02:52:03.891Z,4.76
2019-03-20T02:53:01.202Z,4.76
2019-03-20T02:54:01.170Z,4.82
2019-03-20T02:55:01.160Z,4.79
2019-03-20T02:56:01.148Z,4.78
2019-03-20T02:57:01.148Z,4.74
2019-03-20T02:58:01.061Z,4.71
2019-03-20T02:59:01.035Z,4.76
2019-03-20T03:00:01.014Z,4.71
2019-03-20T03:01:00.982Z,4.79
2019-03-20T03:02:00.956Z,4.71
2019-03-20T03:03:00.928Z,4.70
2019-03-20T03:04:00.908Z,4.70
2019-03-20T03:05:00.878Z,4.74
2019-03-20T03:06:06.629Z,4.67
2019-03-20T03:07:00.828Z,4.75
2019-03-20T03:08:00.807Z,4.61
2019-03-20T03:09:00.780Z,4.70
2019-03-20T03:10:00.750Z,4.71
2019-03-20T03:11:00.735Z,4.74
2019-03-20T03:12:00.708Z,4.71
2019-03-20T03:13:00.675Z,4.70
2019-03-20T03:14:00.650Z,4.67
2019-03-20T03:15:01.229Z,4.71
2019-03-20T03:16:00.594Z,4.74
2019-03-20T03:17:00.568Z,4.63
2019-03-20T03:18:00.543Z,4.64
2019-03-20T03:19:00.511Z,4.52
2019-03-20T03:20:00.575Z,4.53
2019-03-20T03:21:00.466Z,4.60
2019-03-20T03:22:00.434Z,4.58
2019-03-20T03:23:00.408Z,4.60
2019-03-20T03:24:00.378Z,4.58
2019-03-20T03:25:00.657Z,4.53
2019-03-20T03:26:00.343Z,4.53
2019-03-20T03:27:00.299Z,4.48
2019-03-20T03:28:00.273Z,4.48
2019-03-20T03:29:00.248Z,4.48
2019-03-20T03:30:00.579Z,4.40
2019-03-20T03:31:00.197Z,4.39
2019-03-20T03:32:00.170Z,4.42
2019-03-20T03:33:00.182Z,4.45
2019-03-20T03:34:00.116Z,4.50
2019-03-20T03:35:00.118Z,4.49
2019-03-20T03:36:00.063Z,4.53
2019-03-20T03:37:00.045Z,4.50
2019-03-20T03:38:00.017Z,4.52
2019-03-20T03:38:59.994Z,4.56
2019-03-20T03:39:59.963Z,4.48
2019-03-20T03:40:59.936Z,4.46
2019-03-20T03:41:59.911Z,4.52
2019-03-20T03:42:59.883Z,4.56
2019-03-20T03:43:59.859Z,4.40
2019-03-20T03:44:59.829Z,4.48
2019-03-20T03:45:59.805Z,4.52
2019-03-20T03:46:59.778Z,4.49
2019-03-20T03:47:59.757Z,4.52
2019-03-20T03:48:59.726Z,4.57
2019-03-20T03:49:59.697Z,4.60
2019-03-20T03:50:59.680Z,4.52
2019-03-20T03:51:59.642Z,4.56
2019-03-20T03:52:59.623Z,4.67
2019-03-20T03:53:59.590Z,4.68
2019-03-20T03:54:59.563Z,4.71
2019-03-20T03:55:59.536Z,4.68
2019-03-20T03:56:59.509Z,4.68
2019-03-20T03:57:59.485Z,4.70
2019-03-20T03:58:59.483Z,4.70
2019-03-20T03:59:59.437Z,4.68
2019-03-20T04:00:59.406Z,4.70
2019-03-20T04:01:59.376Z,4.67
2019-03-20T04:02:59.350Z,4.67
2019-03-20T04:03:59.322Z,4.58
2019-03-20T04:04:59.294Z,4.74
2019-03-20T04:05:59.280Z,4.71
2019-03-20T04:06:59.246Z,4.67
2019-03-20T04:07:59.219Z,4.71
2019-03-20T04:08:59.196Z,4.70
2019-03-20T04:09:59.160Z,4.63
2019-03-20T04:10:59.138Z,4.63
2019-03-20T04:11:59.112Z,4.70
2019-03-20T04:12:59.081Z,4.61
2019-03-20T04:13:59.059Z,4.64
2019-03-20T04:14:59.033Z,4.63
2019-03-20T04:15:59.524Z,4.63
2019-03-20T04:16:58.980Z,4.56
2019-03-20T04:17:58.955Z,4.67
2019-03-20T04:18:58.926Z,4.68
2019-03-20T04:19:58.907Z,4.56
2019-03-20T04:20:58.884Z,4.57
2019-03-20T04:21:58.844Z,4.57
2019-03-20T04:22:58.816Z,4.71
2019-03-20T04:23:58.791Z,4.67
2019-03-20T04:24:58.799Z,4.58
2019-03-20T04:25:58.742Z,4.67
2019-03-20T04:26:58.710Z,4.71
2019-03-20T04:27:58.681Z,4.68
2019-03-20T04:28:58.655Z,4.68
2019-03-20T04:29:58.629Z,4.67
2019-03-20T04:30:58.600Z,4.66
2019-03-20T04:31:58.574Z,4.71
2019-03-20T04:32:58.548Z,4.68
2019-03-20T04:33:58.520Z,4.68
2019-03-20T04:34:58.493Z,4.67
2019-03-20T04:35:58.467Z,4.68
2019-03-20T04:36:58.441Z,4.56
2019-03-20T04:37:58.419Z,4.50
2019-03-20T04:38:58.388Z,4.57
2019-03-20T04:39:58.358Z,4.53
2019-03-20T04:40:58.336Z,4.58
2019-03-20T04:41:58.313Z,4.60
2019-03-20T04:42:58.279Z,4.53
2019-03-20T04:43:58.258Z,4.56
2019-03-20T04:44:58.233Z,4.57
2019-03-20T04:45:58.313Z,4.50
2019-03-20T04:46:58.171Z,4.43
2019-03-20T04:47:58.146Z,4.49
2019-03-20T04:48:58.122Z,4.53
2019-03-20T04:49:58.093Z,4.53
2019-03-20T04:50:58.065Z,4.46
2019-03-20T04:51:58.043Z,4.45
2019-03-20T04:52:58.018Z,4.45
2019-03-20T04:53:57.987Z,4.40
2019-03-20T04:54:57.957Z,4.52
2019-03-20T04:55:57.930Z,4.45
2019-03-20T04:56:57.903Z,4.45
2019-03-20T04:57:57.877Z,4.40
2019-03-20T04:58:57.863Z,4.42
2019-03-20T04:59:57.822Z,4.50
2019-03-20T05:00:57.803Z,4.49
2019-03-20T05:01:57.772Z,4.50
2019-03-20T05:02:57.744Z,4.57
2019-03-20T05:03:57.719Z,4.52
2019-03-20T05:04:57.703Z,4.45
2019-03-20T05:05:57.662Z,4.57
2019-03-20T05:06:59.375Z,4.56
2019-03-20T05:07:57.613Z,4.60
2019-03-20T05:08:57.582Z,4.56
2019-03-20T05:09:57.558Z,4.64
2019-03-20T05:10:57.534Z,4.63
2019-03-20T05:11:57.508Z,4.60
2019-03-20T05:12:57.477Z,4.60
2019-03-20T05:13:57.469Z,4.67
2019-03-20T05:14:57.432Z,4.68
2019-03-20T05:15:57.399Z,4.68
2019-03-20T05:16:57.371Z,4.68
2019-03-20T05:17:57.344Z,4.67
2019-03-20T05:18:57.315Z,4.71
2019-03-20T05:19:57.288Z,4.66
2019-03-20T05:20:57.285Z,4.76
2019-03-20T05:21:57.243Z,4.71
2019-03-20T05:22:57.208Z,4.71
2019-03-20T05:23:57.179Z,4.67
2019-03-20T05:24:57.154Z,4.74
2019-03-20T05:25:57.127Z,4.74
2019-03-20T05:26:57.099Z,4.66
2019-03-20T05:27:57.074Z,4.66
2019-03-20T05:28:57.051Z,4.68
2019-03-20T05:29:57.027Z,4.70
2019-03-20T05:30:56.990Z,4.70
2019-03-20T05:31:56.969Z,4.68
2019-03-20T05:32:56.942Z,4.70
2019-03-20T05:33:56.913Z,4.66
2019-03-20T05:34:56.892Z,4.68
2019-03-20T05:35:56.875Z,4.68
2019-03-20T05:36:56.834Z,4.75
2019-03-20T05:37:56.824Z,4.66
2019-03-20T05:38:56.784Z,4.68
2019-03-20T05:39:56.757Z,4.75
2019-03-20T05:40:56.727Z,4.68
2019-03-20T05:41:56.701Z,4.70
2019-03-20T05:42:56.679Z,4.66
2019-03-20T05:43:56.649Z,4.63
2019-03-20T05:44:57.584Z,4.61
2019-03-20T05:45:56.598Z,4.63
2019-03-20T05:46:56.570Z,4.71
2019-03-20T05:47:56.541Z,4.71
2019-03-20T05:48:56.515Z,4.71
2019-03-20T05:49:56.487Z,4.66
2019-03-20T05:50:56.459Z,4.60
2019-03-20T05:51:56.436Z,4.64
2019-03-20T05:52:56.410Z,4.70
2019-03-20T05:53:56.381Z,4.70
2019-03-20T05:54:56.361Z,4.66
2019-03-20T05:55:56.356Z,4.70
2019-03-20T05:56:56.316Z,4.71
2019-03-20T05:57:56.274Z,4.66
2019-03-20T05:58:56.246Z,4.61
2019-03-20T05:59:56.220Z,4.67
2019-03-20T06:00:56.201Z,4.71
2019-03-20T06:01:56.172Z,4.74
2019-03-20T06:02:56.142Z,4.71
2019-03-20T06:03:56.116Z,4.76
2019-03-20T06:04:56.090Z,4.67
2019-03-20T06:05:56.066Z,4.78
2019-03-20T06:06:56.044Z,4.78
2019-03-20T06:07:56.010Z,4.82
2019-03-20T06:08:55.985Z,4.89
2019-03-20T06:09:55.959Z,4.87
2019-03-20T06:10:55.936Z,4.89
2019-03-20T06:11:55.907Z,4.83
2019-03-20T06:12:55.880Z,5.00
2019-03-20T06:13:55.853Z,4.98
2019-03-20T06:14:55.827Z,5.00
2019-03-20T06:15:55.800Z,5.00
2019-03-20T06:16:55.776Z,5.02
2019-03-20T06:17:55.748Z,5.05
2019-03-20T06:18:55.721Z,5.13
2019-03-20T06:19:55.701Z,5.16
2019-03-20T06:20:55.668Z,5.19
2019-03-20T06:21:55.647Z,5.13
2019-03-20T06:22:55.617Z,5.19
2019-03-20T06:23:55.591Z,5.19
2019-03-20T06:24:55.567Z,5.19
2019-03-20T06:25:55.540Z,5.28
2019-03-20T06:26:55.516Z,5.33
2019-03-20T06:27:55.487Z,5.34
2019-03-20T06:28:55.461Z,5.38
2019-03-20T06:29:55.435Z,5.44
2019-03-20T06:30:55.408Z,5.34
2019-03-20T06:31:55.387Z,5.36
2019-03-20T06:32:55.360Z,5.28
2019-03-20T06:33:56.942Z,5.38
2019-03-20T06:34:55.305Z,5.49
2019-03-20T06:35:55.898Z,5.49
2019-03-20T06:36:55.254Z,5.40
2019-03-20T06:37:55.230Z,5.52
2019-03-20T06:38:55.205Z,5.49
2019-03-20T06:39:55.174Z,5.46
2019-03-20T06:40:55.149Z,5.47
2019-03-20T06:41:55.122Z,5.49
2019-03-20T06:42:55.435Z,5.54
2019-03-20T06:43:55.069Z,5.46
2019-03-20T06:44:55.505Z,5.51
2019-03-20T06:45:55.016Z,5.49
2019-03-20T06:46:54.990Z,5.56
2019-03-20T06:47:54.966Z,5.58
2019-03-20T06:48:54.945Z,5.61
2019-03-20T06:49:54.914Z,5.67
2019-03-20T06:50:54.903Z,5.67
2019-03-20T06:51:54.859Z,5.65
2019-03-20T06:52:54.834Z,5.67
2019-03-20T06:53:54.808Z,5.67
2019-03-20T06:54:54.780Z,5.81
2019-03-20T06:55:54.757Z,5.87
2019-03-20T06:56:54.745Z,5.91
2019-03-20T06:57:54.702Z,5.94
2019-03-20T06:58:54.675Z,5.91
2019-03-20T06:59:54.651Z,5.94
2019-03-20T07:00:54.624Z,5.98
2019-03-20T07:01:54.596Z,6.05
2019-03-20T07:02:54.571Z,6.10
2019-03-20T07:03:54.544Z,6.13
2019-03-20T07:04:54.516Z,6.13
2019-03-20T07:05:56.459Z,6.16
2019-03-20T07:06:54.464Z,6.13
2019-03-20T07:07:54.439Z,6.17
2019-03-20T07:08:54.412Z,6.22
2019-03-20T07:09:54.385Z,6.16
2019-03-20T07:10:54.358Z,6.19
2019-03-20T07:11:54.333Z,6.17
2019-03-20T07:12:54.306Z,6.16
2019-03-20T07:13:54.286Z,6.19
2019-03-20T07:14:54.253Z,6.32
2019-03-20T07:15:54.230Z,6.35
2019-03-20T07:16:54.200Z,6.41
2019-03-20T07:17:54.174Z,6.53
2019-03-20T07:18:54.157Z,6.52
2019-03-20T07:19:54.125Z,6.64
2019-03-20T07:20:54.100Z,6.65
2019-03-20T07:21:54.076Z,6.71
2019-03-20T07:22:54.044Z,6.77
2019-03-20T07:23:54.018Z,6.85
2019-03-20T07:24:53.991Z,6.90
2019-03-20T07:25:53.967Z,6.85
2019-03-20T07:26:53.938Z,7.00
2019-03-20T07:27:53.914Z,7.00
2019-03-20T07:28:53.887Z,7.05
2019-03-20T07:29:53.864Z,7.01
2019-03-20T07:30:53.843Z,7.08
2019-03-20T07:31:53.810Z,7.08
2019-03-20T07:32:53.785Z,7.15
2019-03-20T07:33:53.758Z,7.19
2019-03-20T07:34:53.734Z,7.22
2019-03-20T07:35:53.705Z,7.19
2019-03-20T07:36:53.681Z,7.28
2019-03-20T07:37:56.238Z,7.29
2019-03-20T07:38:53.637Z,7.31
2019-03-20T07:39:53.604Z,7.31
2019-03-20T07:40:53.582Z,7.32
2019-03-20T07:41:53.553Z,7.43
2019-03-20T07:42:53.527Z,7.41
2019-03-20T07:43:53.501Z,7.43
2019-03-20T07:44:53.475Z,7.47
2019-03-20T07:45:53.449Z,7.50
2019-03-20T07:46:53.425Z,7.47
2019-03-20T07:47:53.401Z,7.48
2019-03-20T07:48:53.374Z,7.48
2019-03-20T07:49:53.346Z,7.46
2019-03-20T07:50:53.323Z,7.40
2019-03-20T07:51:53.296Z,7.43
2019-03-20T07:52:53.270Z,7.47
2019-03-20T07:53:53.245Z,7.46
2019-03-20T07:54:54.796Z,7.46
2019-03-20T07:55:53.193Z,7.58
2019-03-20T07:56:53.168Z,7.62
2019-03-20T07:57:53.143Z,7.72
2019-03-20T07:58:53.130Z,7.75
2019-03-20T07:59:53.128Z,7.83
2019-03-20T08:00:53.077Z,7.93
2019-03-20T08:01:53.093Z,8.02
2019-03-20T08:02:53.017Z,8.13
2019-03-20T08:03:52.988Z,8.11
2019-03-20T08:04:52.981Z,8.18
2019-03-20T08:05:52.939Z,8.20
2019-03-20T08:06:52.918Z,8.18
2019-03-20T08:07:52.887Z,8.34
2019-03-20T08:08:52.863Z,8.34
2019-03-20T08:09:52.838Z,8.35
2019-03-20T08:10:52.811Z,8.44
2019-03-20T08:11:52.796Z,8.46
2019-03-20T08:12:52.762Z,8.42
2019-03-20T08:13:52.738Z,8.39
2019-03-20T08:14:52.716Z,8.49
2019-03-20T08:15:52.689Z,8.52
2019-03-20T08:16:53.439Z,8.39
2019-03-20T08:17:52.637Z,8.54
2019-03-20T08:18:52.611Z,8.57
2019-03-20T08:19:52.586Z,8.60
2019-03-20T08:20:52.563Z,8.63
2019-03-20T08:21:52.547Z,8.64
2019-03-20T08:22:52.604Z,8.66
2019-03-20T08:23:52.489Z,8.61
2019-03-20T08:24:52.471Z,8.66
2019-03-20T08:25:52.441Z,8.78
2019-03-20T08:26:52.414Z,8.66
2019-03-20T08:27:52.388Z,8.68
2019-03-20T08:28:52.367Z,8.75
2019-03-20T08:29:52.343Z,8.82
2019-03-20T08:30:52.317Z,8.93
2019-03-20T08:31:52.290Z,8.95
2019-03-20T08:32:52.267Z,8.92
2019-03-20T08:33:52.247Z,8.89
2019-03-20T08:34:52.219Z,8.99
2019-03-20T08:35:52.192Z,9.15
2019-03-20T08:36:52.168Z,9.09
2019-03-20T08:37:52.144Z,9.13
2019-03-20T08:38:52.121Z,9.18
2019-03-20T08:39:52.097Z,9.15
2019-03-20T08:40:52.075Z,9.21
2019-03-20T08:41:52.062Z,9.12
2019-03-20T08:42:52.023Z,9.13
2019-03-20T08:43:52.005Z,9.13
2019-03-20T08:44:51.976Z,9.15
2019-03-20T08:45:51.952Z,9.11
2019-03-20T08:46:51.938Z,9.03
2019-03-20T08:47:51.905Z,9.12
2019-03-20T08:48:51.881Z,9.15
2019-03-20T08:49:51.856Z,9.19
2019-03-20T08:50:51.831Z,9.27
2019-03-20T08:51:51.812Z,9.40
2019-03-20T08:52:51.784Z,9.36
2019-03-20T08:53:51.762Z,9.48
2019-03-20T08:54:51.736Z,9.49
2019-03-20T08:55:51.712Z,9.45
2019-03-20T08:56:51.687Z,9.36
2019-03-20T08:57:51.664Z,9.49
2019-03-20T08:58:51.647Z,9.49
2019-03-20T08:59:51.616Z,9.58
2019-03-20T09:00:51.594Z,9.55
2019-03-20T09:01:51.569Z,9.58
2019-03-20T09:02:51.544Z,9.63
2019-03-20T09:03:51.522Z,9.55
2019-03-20T09:04:51.496Z,9.52
2019-03-20T09:05:51.476Z,9.58
2019-03-20T09:06:51.450Z,9.55
2019-03-20T09:07:51.424Z,9.62
2019-03-20T09:08:51.406Z,9.67
2019-03-20T09:09:51.378Z,9.63
2019-03-20T09:10:51.353Z,9.58
2019-03-20T09:11:51.329Z,9.72
2019-03-20T09:12:51.305Z,9.88
2019-03-20T09:13:51.283Z,9.80
2019-03-20T09:14:51.262Z,9.92
2019-03-20T09:15:51.237Z,9.94
2019-03-20T09:16:51.212Z,10.02
2019-03-20T09:17:51.524Z,10.03
2019-03-20T09:18:51.176Z,10.09
2019-03-20T09:19:51.141Z,10.03
2019-03-20T09:20:51.117Z,10.12
2019-03-20T09:21:51.102Z,10.17
2019-03-20T09:22:51.069Z,10.12
2019-03-20T09:23:51.048Z,10.23
2019-03-20T09:24:51.024Z,10.27
2019-03-20T09:25:51.002Z,10.24
2019-03-20T09:26:50.977Z,10.27
2019-03-20T09:27:50.954Z,10.25
2019-03-20T09:28:50.941Z,10.24
2019-03-20T09:29:50.910Z,10.34
2019-03-20T09:30:50.885Z,10.42
2019-03-20T09:31:50.863Z,10.34
2019-03-20T09:32:50.841Z,10.38
2019-03-20T09:33:50.854Z,10.49
2019-03-20T09:34:50.794Z,10.58
2019-03-20T09:35:50.769Z,10.68
2019-03-20T09:36:50.748Z,10.71
2019-03-20T09:37:52.287Z,10.82
2019-03-20T09:38:50.700Z,10.75
2019-03-20T09:39:50.678Z,10.71
2019-03-20T09:40:50.655Z,10.80
2019-03-20T09:41:50.633Z,10.72
2019-03-20T09:42:50.609Z,10.71
2019-03-20T09:43:50.587Z,10.87
2019-03-20T09:44:50.564Z,10.89
2019-03-20T09:45:50.541Z,10.94
2019-03-20T09:46:50.521Z,11.02
2019-03-20T09:47:50.494Z,11.05
2019-03-20T09:48:50.471Z,11.15
2019-03-20T09:49:50.450Z,11.13
2019-03-20T09:50:50.434Z,11.04
2019-03-20T09:51:50.405Z,11.10
2019-03-20T09:52:50.383Z,10.97
2019-03-20T09:53:50.359Z,10.95
2019-03-20T09:54:50.335Z,11.07
2019-03-20T09:55:50.314Z,11.15
2019-03-20T09:56:50.294Z,11.13
2019-03-20T09:57:50.267Z,11.16
2019-03-20T09:58:50.245Z,11.23
2019-03-20T09:59:50.223Z,11.20
2019-03-20T10:00:50.201Z,11.26
2019-03-20T10:01:50.180Z,11.19
2019-03-20T10:02:50.155Z,11.25
2019-03-20T10:03:50.136Z,11.33
2019-03-20T10:04:50.112Z,11.34
2019-03-20T10:05:50.089Z,11.31
2019-03-20T10:06:50.065Z,11.44
2019-03-20T10:07:50.042Z,11.48
2019-03-20T10:08:54.041Z,11.45
2019-03-20T10:09:49.998Z,11.52
2019-03-20T10:10:49.975Z,11.59
2019-03-20T10:11:49.957Z,11.70
2019-03-20T10:12:49.948Z,11.70
2019-03-20T10:13:49.908Z,11.81
2019-03-20T10:14:49.888Z,11.78
2019-03-20T10:15:49.866Z,11.86
2019-03-20T10:16:49.845Z,11.89
2019-03-20T10:17:49.824Z,11.93
2019-03-20T10:18:49.820Z,12.03
2019-03-20T10:19:49.774Z,12.02
2019-03-20T10:20:49.754Z,11.88
2019-03-20T10:21:49.731Z,11.95
2019-03-20T10:22:49.709Z,11.99
2019-03-20T10:23:49.690Z,11.81
2019-03-20T10:24:49.664Z,11.95
2019-03-20T10:25:49.648Z,11.91
2019-03-20T10:26:49.629Z,11.95
2019-03-20T10:27:51.804Z,11.95
2019-03-20T10:28:49.580Z,12.07
2019-03-20T10:29:49.581Z,11.97
2019-03-20T10:30:49.545Z,12.05
2019-03-20T10:31:49.515Z,12.00
2019-03-20T10:32:49.491Z,12.05
2019-03-20T10:33:49.473Z,12.05
2019-03-20T10:34:49.449Z,11.91
2019-03-20T10:35:50.495Z,12.02
2019-03-20T10:36:49.450Z,11.88
2019-03-20T10:37:49.400Z,11.96
2019-03-20T10:38:49.405Z,11.93
2019-03-20T10:39:51.021Z,11.88
2019-03-20T10:40:49.374Z,11.99
2019-03-20T10:41:49.301Z,12.02
2019-03-20T10:42:49.289Z,11.95
2019-03-20T10:43:49.269Z,12.07
2019-03-20T10:44:49.229Z,11.99
2019-03-20T10:45:51.040Z,12.05
2019-03-20T10:46:49.200Z,11.99
2019-03-20T10:47:49.169Z,12.08
2019-03-20T10:48:49.140Z,12.17
2019-03-20T10:49:49.541Z,12.30
2019-03-20T10:50:49.106Z,12.23
2019-03-20T10:51:49.074Z,12.44
2019-03-20T10:52:49.052Z,12.44
2019-03-20T10:53:49.031Z,12.26
2019-03-20T10:54:49.008Z,12.25
2019-03-20T10:55:48.988Z,12.26
2019-03-20T10:56:48.963Z,12.21
2019-03-20T10:57:48.950Z,12.20
2019-03-20T10:58:48.936Z,12.14
2019-03-20T10:59:48.899Z,12.17
2019-03-20T11:00:48.879Z,12.18
2019-03-20T11:01:48.855Z,12.21
2019-03-20T11:02:48.839Z,12.30
2019-03-20T11:03:48.813Z,12.26
2019-03-20T11:04:48.829Z,12.44
2019-03-20T11:05:48.768Z,12.28
2019-03-20T11:06:48.751Z,12.37
2019-03-20T11:07:48.741Z,12.28
2019-03-20T11:08:48.707Z,12.20
2019-03-20T11:09:48.682Z,12.23
2019-03-20T11:12:31.563Z,12.47
2019-03-20T11:13:31.526Z,12.51
2019-03-20T11:15:24.930Z,12.68
2019-03-20T11:16:24.860Z,12.81
2019-03-20T11:18:19.217Z,12.87
2019-03-20T11:19:19.311Z,13.03
2019-03-20T11:21:12.504Z,13.27
2019-03-20T11:22:18.791Z,13.39
2019-03-20T11:24:05.838Z,13.57
2019-03-20T11:25:05.786Z,13.60
2019-03-20T11:26:59.134Z,13.54
2019-03-20T11:27:59.098Z,13.60
2019-03-20T11:29:53.466Z,13.54
2019-03-20T11:30:53.452Z,13.60
2019-03-20T11:32:46.762Z,13.78
2019-03-20T11:33:46.727Z,13.73
2019-03-20T11:35:42.442Z,13.67
2019-03-20T11:36:40.051Z,13.75
2019-03-20T11:38:34.419Z,13.73
2019-03-20T11:39:34.374Z,13.62
2019-03-20T11:41:27.717Z,13.60
2019-03-20T11:42:27.683Z,13.43
2019-03-20T11:44:21.066Z,13.19
2019-03-20T11:45:23.395Z,13.06
2019-03-20T11:47:14.345Z,12.99
2019-03-20T11:48:14.315Z,12.95
2019-03-20T11:50:08.681Z,12.80
2019-03-20T11:51:08.629Z,12.83
2019-03-20T11:53:02.051Z,12.68
2019-03-20T11:54:01.939Z,12.63
2019-03-20T11:55:55.309Z,12.55
2019-03-20T11:56:55.253Z,12.51
2019-03-20T11:58:48.610Z,12.48
2019-03-20T11:59:48.567Z,12.48
2019-03-20T12:01:41.909Z,12.55
2019-03-20T12:02:41.890Z,12.58
2019-03-20T12:04:35.238Z,12.54
2019-03-20T12:05:35.208Z,12.53
2019-03-20T12:07:29.528Z,12.51
2019-03-20T12:08:29.501Z,12.51
2019-03-20T12:10:22.859Z,12.61
2019-03-20T12:11:22.809Z,12.51
2019-03-20T12:13:16.148Z,12.55
2019-03-20T12:14:16.122Z,12.61
2019-03-20T12:16:09.479Z,12.54
2019-03-20T12:17:09.432Z,12.48
2019-03-20T12:19:02.793Z,12.54
2019-03-20T12:20:02.740Z,12.57
2019-03-20T12:21:56.100Z,12.54
2019-03-20T12:22:56.050Z,12.55
2019-03-20T12:24:49.410Z,12.61
2019-03-20T12:25:49.360Z,12.73
2019-03-20T12:27:43.700Z,12.70
2019-03-20T12:28:43.674Z,12.83
2019-03-20T12:30:38.033Z,12.88
2019-03-20T12:31:37.979Z,12.90
2019-03-20T12:33:31.320Z,12.90
2019-03-20T12:34:31.290Z,12.90
2019-03-20T12:36:24.704Z,12.88
2019-03-20T12:37:24.642Z,12.86
2019-03-20T12:39:18.007Z,12.87
2019-03-20T12:40:17.949Z,12.87
2019-03-20T12:42:11.288Z,12.99
2019-03-20T12:43:11.306Z,12.93
2019-03-20T12:45:04.622Z,12.87
2019-03-20T12:46:04.568Z,12.87
2019-03-20T12:47:58.914Z,12.76
2019-03-20T12:48:59.815Z,12.80
2019-03-20T12:50:52.240Z,12.86
2019-03-20T12:51:52.189Z,12.84
2019-03-20T12:53:45.527Z,12.80
2019-03-20T12:54:45.499Z,12.73
2019-03-20T12:56:38.857Z,12.75
2019-03-20T12:57:38.807Z,12.83
2019-03-20T12:59:32.176Z,12.72
2019-03-20T13:00:32.120Z,12.72
2019-03-20T13:02:26.469Z,12.75
2019-03-20T13:03:26.442Z,12.69
2019-03-20T13:05:19.798Z,12.73
2019-03-20T13:06:19.750Z,12.66
2019-03-20T13:08:13.095Z,12.69
2019-03-20T13:09:13.064Z,12.61
2019-03-20T13:11:06.421Z,12.69
2019-03-20T13:12:06.372Z,12.72
2019-03-20T13:13:59.734Z,12.62
2019-03-20T13:14:59.687Z,12.62
2019-03-20T13:16:53.067Z,12.66
2019-03-20T13:17:53.026Z,12.70
2019-03-20T13:19:46.380Z,12.58
2019-03-20T13:20:46.331Z,12.62
2019-03-20T13:22:39.687Z,12.55
2019-03-20T13:23:39.654Z,12.62
2019-03-20T13:25:33.033Z,12.58
2019-03-20T13:26:32.983Z,12.61
2019-03-20T13:28:31.443Z,12.63
2019-03-20T13:29:31.408Z,12.62
2019-03-20T13:31:24.757Z,12.62
2019-03-20T13:32:24.716Z,12.70
2019-03-20T13:34:18.106Z,12.69
2019-03-20T13:35:18.055Z,12.66
2019-03-20T13:37:12.384Z,12.70
2019-03-20T13:38:12.365Z,12.73
2019-03-20T13:40:13.865Z,12.72
2019-03-20T13:41:05.676Z,12.72
2019-03-20T13:42:59.021Z,12.73
2019-03-20T13:43:58.997Z,12.81
2019-03-20T13:45:52.364Z,12.87
2019-03-20T13:46:52.303Z,12.81
2019-03-20T13:48:45.645Z,12.73
2019-03-20T13:49:45.620Z,12.62
2019-03-20T13:51:38.983Z,12.78
2019-03-20T13:52:38.940Z,12.76
2019-03-20T13:54:32.313Z,12.69
2019-03-20T13:55:32.266Z,12.62
2019-03-20T13:57:25.615Z,12.62
2019-03-20T13:58:25.583Z,12.57
2019-03-20T14:00:19.946Z,12.54
2019-03-20T14:01:19.913Z,12.55
2019-03-20T14:03:13.228Z,12.54
2019-03-20T14:04:13.200Z,12.51